createdAt,value
2019-05-07T00:02:10.825Z,88.82
2019-05-07T00:04:37.146Z,88.38
2019-05-07T00:07:03.452Z,89.10
2019-05-07T00:09:32.131Z,88.61
2019-05-07T00:11:56.093Z,88.87
2019-05-07T00:14:23.067Z,89.17
2019-05-07T00:16:48.756Z,88.68
2019-05-07T00:19:15.087Z,88.83
2019-05-07T00:21:42.285Z,89.06
2019-05-07T00:24:07.710Z,88.91
2019-05-07T00:26:34.037Z,87.57
2019-05-07T00:29:02.242Z,87.53
2019-05-07T00:31:26.660Z,87.79
2019-05-07T00:33:53.010Z,87.42
2019-05-07T00:36:19.308Z,87.79
2019-05-07T00:38:45.637Z,86.76
2019-05-07T00:41:12.359Z,87.50
2019-05-07T00:43:38.261Z,87.44
2019-05-07T00:46:04.590Z,86.56
2019-05-07T00:48:32.814Z,86.75
2019-05-07T00:50:57.223Z,86.84
2019-05-07T00:53:23.795Z,86.28
2019-05-07T00:55:49.859Z,86.89
2019-05-07T00:58:16.162Z,86.73
2019-05-07T01:00:42.491Z,87.04
2019-05-07T01:03:08.898Z,86.65
2019-05-07T01:05:35.196Z,87.19
2019-05-07T01:08:02.595Z,87.25
2019-05-07T01:10:27.843Z,86.70
2019-05-07T01:12:54.165Z,86.04
2019-05-07T01:15:28.814Z,86.34
2019-05-07T01:17:46.816Z,86.32
2019-05-07T01:20:13.133Z,85.47
2019-05-07T01:22:39.438Z,86.25
2019-05-07T01:25:05.776Z,86.09
2019-05-07T01:27:32.270Z,85.38
2019-05-07T01:29:58.405Z,86.03
2019-05-07T01:32:24.713Z,85.70
2019-05-07T01:34:52.484Z,85.39
2019-05-07T01:37:17.345Z,85.37
2019-05-07T01:39:43.647Z,84.97
2019-05-07T01:42:09.974Z,84.57
2019-05-07T01:44:36.274Z,84.67
2019-05-07T01:47:02.773Z,84.34
2019-05-07T01:49:28.927Z,84.56
2019-05-07T01:51:55.238Z,83.73
2019-05-07T01:54:23.490Z,83.77
2019-05-07T01:56:47.883Z,84.12
2019-05-07T01:59:14.187Z,83.87
2019-05-07T02:01:42.718Z,84.39
2019-05-07T02:04:06.815Z,83.58
2019-05-07T02:06:33.147Z,83.29
2019-05-07T02:08:59.451Z,84.08
2019-05-07T02:11:25.774Z,84.28
2019-05-07T02:13:52.966Z,83.59
2019-05-07T02:16:18.416Z,83.80
2019-05-07T02:18:44.733Z,83.46
2019-05-07T02:21:12.931Z,84.38
2019-05-07T02:23:37.359Z,84.55
2019-05-07T02:26:03.659Z,85.22
2019-05-07T02:28:29.987Z,85.02
2019-05-07T02:30:56.294Z,84.93
2019-05-07T02:33:23.104Z,85.04
2019-05-07T02:35:48.938Z,84.73
2019-05-07T02:38:15.240Z,84.77
2019-05-07T02:40:43.292Z,85.05
2019-05-07T02:43:07.856Z,85.79
2019-05-07T02:45:34.177Z,85.96
2019-05-07T02:48:03.258Z,85.68
2019-05-07T02:50:26.864Z,86.07
2019-05-07T02:52:53.833Z,86.43
2019-05-07T02:55:19.511Z,86.37
2019-05-07T02:57:45.840Z,85.51
2019-05-07T03:00:14.612Z,85.86
2019-05-07T03:02:38.480Z,85.89
2019-05-07T03:05:05.392Z,86.19
2019-05-07T03:07:33.488Z,87.12
2019-05-07T03:09:57.426Z,87.41
2019-05-07T03:12:23.976Z,87.73
2019-05-07T03:14:53.363Z,86.94
2019-05-07T03:17:16.371Z,87.27
2019-05-07T03:19:43.119Z,86.89
2019-05-07T03:22:09.004Z,86.80
2019-05-07T03:24:35.310Z,87.12
2019-05-07T03:27:03.207Z,86.33
2019-05-07T03:29:27.943Z,86.79
2019-05-07T03:31:56.103Z,86.17
2019-05-07T03:34:25.127Z,86.23
2019-05-07T03:36:48.560Z,86.24
2019-05-07T03:39:14.515Z,85.85
2019-05-07T03:41:39.513Z,86.01
2019-05-07T03:44:05.844Z,85.42
2019-05-07T03:46:33.681Z,85.26
2019-05-07T03:48:58.471Z,84.72
2019-05-07T03:51:24.782Z,84.94
2019-05-07T03:53:53.447Z,84.98
2019-05-07T03:56:17.426Z,84.88
2019-05-07T03:58:43.872Z,85.13
2019-05-07T04:01:13.159Z,85.07
2019-05-07T04:03:36.365Z,85.22
2019-05-07T04:06:03.826Z,84.92
2019-05-07T04:08:28.988Z,84.11
2019-05-07T04:10:55.315Z,83.26
2019-05-07T04:13:24.039Z,83.94
2019-05-07T04:15:47.932Z,82.78
2019-05-07T04:18:14.271Z,82.51
2019-05-07T04:20:43.527Z,80.59
2019-05-07T04:23:06.935Z,79.95
2019-05-07T04:25:34.708Z,80.01
2019-05-07T04:27:59.553Z,80.35
2019-05-07T04:30:25.884Z,80.51
2019-05-07T04:32:53.052Z,80.53
2019-05-07T04:35:18.513Z,80.42
2019-05-07T04:37:44.828Z,80.53
2019-05-07T04:40:13.484Z,80.87
2019-05-07T04:42:37.465Z,81.56
2019-05-07T04:45:04.471Z,81.53
2019-05-07T04:47:38.731Z,80.35
2019-05-07T04:49:56.405Z,79.76
2019-05-07T04:52:23.869Z,78.79
2019-05-07T04:54:49.062Z,79.49
2019-05-07T04:57:15.374Z,78.32
2019-05-07T04:59:42.905Z,78.84
2019-05-07T05:02:08.011Z,77.31
2019-05-07T05:04:35.091Z,76.41
2019-05-07T05:07:02.617Z,76.57
2019-05-07T05:09:26.973Z,76.81
2019-05-07T05:11:53.280Z,76.89
2019-05-07T05:14:22.589Z,76.78
2019-05-07T05:16:45.900Z,74.94
2019-05-07T05:19:12.676Z,70.89
2019-05-07T05:21:38.624Z,69.88
2019-05-07T05:24:04.944Z,70.57
2019-05-07T05:26:32.506Z,72.77
2019-05-07T05:28:57.579Z,74.23
2019-05-07T05:31:23.887Z,74.83
2019-05-07T05:33:52.455Z,72.31
2019-05-07T05:36:16.513Z,73.40
2019-05-07T05:38:42.822Z,73.20
2019-05-07T05:41:09.148Z,73.48
2019-05-07T05:43:35.474Z,73.81
2019-05-07T05:46:02.732Z,74.71
2019-05-07T05:48:28.103Z,74.98
2019-05-07T05:50:54.405Z,74.83
2019-05-07T05:53:21.861Z,75.54
2019-05-07T05:55:47.029Z,76.29
2019-05-07T05:58:13.333Z,77.09
2019-05-07T06:00:42.157Z,77.32
2019-05-07T06:03:06.048Z,76.92
2019-05-07T06:05:34.324Z,76.95
2019-05-07T06:07:58.685Z,77.41
2019-05-07T06:10:25.020Z,76.18
2019-05-07T06:12:52.255Z,75.63
2019-05-07T06:15:17.675Z,75.24
2019-05-07T06:17:44.068Z,74.55
2019-05-07T06:20:12.147Z,74.03
2019-05-07T06:22:36.699Z,74.35
2019-05-07T06:25:03.051Z,73.61
2019-05-07T06:27:29.362Z,73.90
2019-05-07T06:29:55.668Z,73.32
2019-05-07T06:32:22.923Z,73.21
2019-05-07T06:34:48.360Z,73.85
2019-05-07T06:38:53.188Z,73.11
2019-05-07T06:41:18.990Z,73.82
2019-05-07T06:43:45.325Z,73.12
2019-05-07T06:46:12.533Z,72.34
2019-05-07T06:48:42.852Z,73.57
2019-05-07T06:51:04.266Z,73.47
2019-05-07T06:53:32.990Z,73.95
2019-05-07T06:55:56.875Z,74.03
2019-05-07T06:58:23.183Z,73.29
2019-05-07T07:00:49.517Z,72.66
2019-05-07T07:03:15.819Z,73.05
2019-05-07T07:05:42.613Z,72.81
2019-05-07T07:08:08.427Z,72.53
2019-05-07T07:10:34.732Z,72.82
2019-05-07T07:13:02.398Z,73.12
2019-05-07T07:15:27.342Z,72.76
2019-05-07T07:17:53.643Z,72.31
2019-05-07T07:20:21.898Z,72.51
2019-05-07T07:22:46.253Z,72.80
2019-05-07T07:25:12.568Z,72.04
2019-05-07T07:27:38.878Z,72.53
2019-05-07T07:30:05.194Z,72.71
2019-05-07T07:32:31.820Z,73.85
2019-05-07T07:34:57.930Z,74.28
2019-05-07T07:37:24.237Z,73.79
2019-05-07T07:39:52.427Z,74.38
2019-05-07T07:42:16.937Z,74.11
2019-05-07T07:44:43.266Z,74.23
2019-05-07T07:47:09.569Z,74.31
2019-05-07T07:49:35.870Z,73.35
2019-05-07T07:52:03.157Z,73.17
2019-05-07T07:54:28.556Z,74.20
2019-05-07T07:56:56.622Z,74.21
2019-05-07T07:59:22.149Z,72.90
2019-05-07T08:01:47.480Z,73.96
2019-05-07T08:04:13.792Z,73.44
2019-05-07T08:06:42.072Z,72.32
2019-05-07T08:09:06.400Z,72.32
2019-05-07T08:11:33.740Z,72.83
2019-05-07T08:14:02.213Z,73.33
2019-05-07T08:16:26.525Z,73.95
2019-05-07T08:18:53.368Z,73.85
2019-05-07T08:21:19.679Z,73.41
2019-05-07T08:23:46.047Z,74.25
2019-05-07T08:26:12.702Z,74.04
2019-05-07T08:28:38.656Z,73.38
2019-05-07T08:31:04.964Z,73.02
2019-05-07T08:33:32.246Z,73.12
2019-05-07T08:35:57.576Z,73.83
2019-05-07T08:38:23.930Z,73.55
2019-05-07T08:40:51.989Z,71.85
2019-05-07T08:43:16.556Z,70.57
2019-05-07T08:45:43.255Z,71.53
2019-05-07T08:48:09.248Z,71.83
2019-05-07T08:50:35.660Z,72.71
2019-05-07T08:53:02.757Z,71.82
2019-05-07T08:55:28.281Z,72.38
2019-05-07T08:57:54.611Z,72.21
2019-05-07T09:00:22.367Z,72.51
2019-05-07T09:02:47.200Z,73.01
2019-05-07T09:05:13.511Z,72.39
2019-05-07T09:07:39.813Z,72.06
2019-05-07T09:10:06.119Z,72.11
2019-05-07T09:12:32.428Z,71.81
2019-05-07T09:14:58.732Z,72.20
2019-05-07T09:17:25.055Z,70.94
2019-05-07T09:19:54.492Z,72.19
2019-05-07T09:22:17.664Z,71.83
2019-05-07T09:24:43.968Z,70.85
2019-05-07T09:27:12.048Z,70.35
2019-05-07T09:29:36.584Z,70.17
2019-05-07T09:32:03.074Z,70.59
2019-05-07T09:34:29.196Z,71.24
2019-05-07T09:36:55.543Z,71.54
2019-05-07T09:39:22.143Z,70.86
2019-05-07T09:41:48.128Z,69.75
2019-05-07T09:44:14.436Z,68.66
2019-05-07T09:46:42.908Z,68.88
2019-05-07T09:49:07.056Z,67.60
2019-05-07T09:51:33.380Z,67.35
2019-05-07T09:53:59.674Z,68.25
2019-05-07T09:56:25.981Z,69.54
2019-05-07T09:58:53.032Z,69.51
2019-05-07T10:01:18.665Z,69.00
2019-05-07T10:03:44.972Z,70.21
2019-05-07T10:06:12.454Z,70.48
2019-05-07T10:08:37.593Z,68.71
2019-05-07T10:11:03.905Z,69.94
2019-05-07T10:13:30.203Z,71.15
2019-05-07T10:15:56.521Z,71.15
2019-05-07T10:18:22.961Z,70.21
2019-05-07T10:20:49.132Z,69.78
2019-05-07T10:23:15.440Z,69.66
2019-05-07T10:25:41.785Z,70.93
2019-05-07T10:28:08.132Z,70.64
2019-05-07T10:30:34.409Z,70.21
2019-05-07T10:33:01.775Z,70.40
2019-05-07T10:35:27.030Z,70.38
2019-05-07T10:37:53.361Z,70.20
2019-05-07T10:40:19.678Z,70.12
2019-05-07T10:42:45.989Z,69.38
2019-05-07T10:45:13.056Z,69.96
2019-05-07T10:47:38.628Z,70.40
2019-05-07T10:50:04.952Z,69.96
2019-05-07T10:52:31.912Z,70.72
2019-05-07T10:54:59.958Z,71.13
2019-05-07T10:57:23.888Z,70.74
2019-05-07T10:59:52.250Z,71.70
2019-05-07T11:02:16.521Z,71.70
2019-05-07T11:04:45.740Z,71.78
2019-05-07T11:07:09.155Z,72.81
2019-05-07T11:09:35.475Z,73.32
2019-05-07T11:12:02.619Z,72.66
2019-05-07T11:14:28.098Z,72.47
2019-05-07T11:16:54.422Z,73.06
2019-05-07T11:19:22.103Z,73.09
2019-05-07T11:21:47.043Z,73.97
2019-05-07T11:24:13.338Z,75.08
2019-05-07T11:26:41.506Z,75.58
2019-05-07T11:29:05.992Z,75.85
2019-05-07T11:31:33.174Z,75.97
2019-05-07T11:33:58.625Z,76.14
2019-05-07T11:36:24.945Z,76.42
2019-05-07T11:38:52.702Z,76.46
2019-05-07T11:41:17.577Z,76.68
2019-05-07T11:43:43.910Z,77.56
2019-05-07T11:46:10.209Z,77.86
2019-05-07T11:48:36.563Z,77.43
2019-05-07T11:51:04.294Z,77.29
2019-05-07T11:53:29.170Z,77.85
2019-05-07T11:55:55.499Z,78.07
2019-05-07T11:58:22.081Z,78.05
2019-05-07T12:00:48.130Z,78.26
2019-05-07T12:03:14.437Z,78.84
2019-05-07T12:05:42.304Z,79.36
2019-05-07T12:08:07.071Z,79.39
2019-05-07T12:10:33.420Z,79.84
2019-05-07T12:13:02.174Z,79.64
2019-05-07T12:15:26.081Z,79.16
2019-05-07T12:17:52.400Z,78.98
2019-05-07T12:20:18.708Z,79.57
2019-05-07T12:22:45.053Z,78.64
2019-05-07T12:25:12.153Z,79.26
2019-05-07T12:27:37.664Z,79.72
2019-05-07T12:30:03.986Z,79.63
2019-05-07T12:32:32.251Z,80.15
2019-05-07T12:34:56.622Z,80.55
2019-05-07T12:37:22.947Z,81.14
2019-05-07T12:39:49.247Z,81.39
2019-05-07T12:42:15.581Z,81.34
2019-05-07T12:44:42.473Z,81.63
2019-05-07T12:47:08.219Z,81.72
2019-05-07T12:49:34.524Z,81.59
2019-05-07T12:52:02.300Z,81.78
2019-05-07T12:54:27.163Z,81.75
2019-05-07T12:56:53.473Z,82.13
2019-05-07T12:59:21.715Z,82.16
2019-05-07T13:01:46.103Z,82.10
2019-05-07T13:04:12.509Z,81.94
2019-05-07T13:06:38.790Z,82.41
2019-05-07T13:09:05.122Z,82.65
2019-05-07T13:11:32.573Z,82.72
2019-05-07T13:13:57.755Z,82.83
2019-05-07T13:16:24.076Z,82.90
2019-05-07T13:18:52.449Z,82.77
2019-05-07T13:21:16.719Z,83.18
2019-05-07T13:23:43.024Z,83.27
2019-05-07T13:26:09.344Z,83.13
2019-05-07T13:28:35.648Z,83.08
2019-05-07T13:31:02.429Z,83.35
2019-05-07T13:33:28.334Z,82.66
2019-05-07T13:35:54.630Z,83.09
2019-05-07T13:38:23.476Z,83.43
2019-05-07T13:40:47.249Z,83.42
2019-05-07T13:43:13.577Z,83.54
2019-05-07T13:45:41.673Z,83.98
2019-05-07T13:48:06.205Z,84.18
2019-05-07T13:50:32.643Z,84.33
2019-05-07T13:52:58.845Z,84.66
2019-05-07T13:55:25.155Z,84.90
2019-05-07T13:57:52.423Z,85.20
2019-05-07T14:00:17.793Z,84.97
2019-05-07T14:02:44.128Z,85.45
2019-05-07T14:05:14.056Z,85.44
2019-05-07T14:07:36.760Z,85.56
2019-05-07T14:10:03.104Z,85.99
2019-05-07T14:12:29.431Z,86.15
2019-05-07T14:14:55.755Z,85.89
2019-05-07T14:17:22.073Z,86.20
2019-05-07T14:19:48.388Z,86.03
2019-05-07T14:22:18.683Z,86.43
2019-05-07T14:24:42.256Z,85.97
2019-05-07T14:27:07.314Z,86.20
2019-05-07T14:29:33.638Z,86.50
2019-05-07T14:32:02.152Z,86.36
2019-05-07T14:34:26.269Z,86.12
2019-05-07T14:36:52.597Z,86.10
2019-05-07T14:39:18.929Z,85.61
2019-05-07T14:41:45.236Z,85.78
2019-05-07T14:44:12.064Z,86.18
2019-05-07T14:46:47.260Z,86.30
2019-05-07T14:49:04.207Z,86.14
2019-05-07T14:51:32.394Z,86.39
2019-05-07T14:53:56.815Z,86.32
2019-05-07T14:56:23.282Z,86.71
2019-05-07T14:58:51.570Z,86.78
2019-05-07T15:01:15.795Z,86.92
2019-05-07T15:03:42.378Z,87.25
2019-05-07T15:06:08.424Z,87.43
2019-05-07T15:08:34.753Z,87.75
2019-05-07T15:11:02.736Z,88.07
2019-05-07T15:13:27.360Z,88.22
2019-05-07T15:15:53.757Z,88.91
2019-05-07T15:18:20.035Z,89.46
2019-05-07T15:20:46.411Z,89.66
2019-05-07T15:23:12.726Z,89.44
2019-05-07T15:25:39.089Z,89.50
2019-05-07T15:28:05.345Z,89.21
2019-05-07T15:30:32.458Z,89.31
2019-05-07T15:32:58.063Z,89.36
2019-05-07T15:35:24.378Z,88.85
2019-05-07T15:37:51.824Z,88.03
2019-05-07T15:40:17.022Z,87.78
2019-05-07T15:42:43.350Z,87.25
2019-05-07T15:45:09.675Z,86.32
2019-05-07T15:47:35.998Z,86.03
2019-05-07T15:50:02.305Z,85.85
2019-05-07T15:52:28.858Z,85.58
2019-05-07T15:54:55.196Z,85.32
2019-05-07T15:57:22.340Z,84.82
2019-05-07T15:59:47.826Z,84.29
2019-05-07T16:02:14.129Z,84.14
2019-05-07T16:04:40.456Z,83.64
2019-05-07T16:07:06.759Z,83.54
2019-05-07T16:09:33.089Z,83.06
2019-05-07T16:11:59.418Z,82.80
2019-05-07T16:14:26.707Z,82.90
2019-05-07T16:16:52.065Z,82.49
2019-05-07T16:19:18.374Z,82.21
2019-05-07T16:21:44.686Z,82.22
2019-05-07T16:24:12.115Z,81.79
2019-05-07T16:26:37.322Z,81.86
2019-05-07T16:29:04.720Z,82.04
2019-05-07T16:31:29.994Z,81.87
2019-05-07T16:33:56.309Z,82.19
2019-05-07T16:36:22.635Z,81.61
2019-05-07T16:38:48.945Z,81.71
2019-05-07T16:41:15.277Z,81.55
2019-05-07T16:43:42.909Z,81.91
2019-05-07T16:46:07.928Z,82.26
2019-05-07T16:48:34.235Z,82.33
2019-05-07T16:51:02.618Z,82.44
2019-05-07T16:53:30.264Z,82.46
2019-05-07T16:55:56.717Z,82.68
2019-05-07T16:58:23.467Z,82.80
2019-05-07T17:00:49.355Z,83.02
2019-05-07T17:03:15.692Z,82.78
2019-05-07T17:05:42.834Z,82.91
2019-05-07T17:08:08.322Z,82.31
2019-05-07T17:10:34.645Z,82.33
2019-05-07T17:13:02.836Z,82.07
2019-05-07T17:15:27.628Z,81.81
2019-05-07T17:17:53.947Z,81.86
2019-05-07T17:20:21.974Z,81.44
2019-05-07T17:22:46.570Z,81.44
2019-05-07T17:25:13.159Z,81.43
2019-05-07T17:27:39.288Z,80.79
2019-05-07T17:30:05.740Z,80.64
2019-05-07T17:32:32.225Z,80.49
2019-05-07T17:34:58.373Z,80.17
2019-05-07T17:37:24.718Z,80.11
2019-05-07T17:39:52.281Z,80.09
2019-05-07T17:42:17.540Z,80.02
2019-05-07T17:44:43.868Z,79.81
2019-05-07T17:47:12.636Z,79.68
2019-05-07T17:49:36.589Z,79.73
2019-05-07T17:52:03.031Z,79.69
2019-05-07T17:54:29.128Z,80.01
2019-05-07T17:56:55.503Z,79.47
2019-05-07T17:59:21.816Z,79.33
2019-05-07T18:01:50.105Z,79.15
2019-05-07T18:04:14.462Z,79.33
2019-05-07T18:06:42.673Z,79.23
2019-05-07T18:09:07.340Z,78.48
2019-05-07T18:11:33.696Z,78.58
2019-05-07T18:14:02.426Z,78.26
2019-05-07T18:16:26.434Z,77.99
2019-05-07T18:18:52.770Z,78.28
2019-05-07T18:21:19.121Z,78.05
2019-05-07T18:23:45.533Z,78.25
2019-05-07T18:26:16.421Z,78.37
2019-05-07T18:28:38.290Z,77.99
2019-05-07T18:31:04.656Z,78.00
2019-05-07T18:33:30.963Z,77.92
2019-05-07T18:35:57.315Z,77.84
2019-05-07T18:38:23.639Z,77.86
2019-05-07T18:40:49.974Z,78.05
2019-05-07T18:43:16.294Z,77.69
2019-05-07T18:45:42.631Z,77.73
2019-05-07T18:48:08.969Z,77.33
2019-05-07T18:50:35.279Z,77.61
2019-05-07T18:53:02.839Z,77.80
2019-05-07T18:55:28.021Z,77.62
2019-05-07T18:57:54.380Z,77.41
2019-05-07T19:00:22.111Z,77.37
2019-05-07T19:02:47.013Z,77.25
2019-05-07T19:05:13.379Z,77.29
2019-05-07T19:07:42.172Z,77.20
2019-05-07T19:10:08.446Z,77.17
2019-05-07T19:12:34.809Z,76.96
2019-05-07T19:15:02.937Z,77.27
2019-05-07T19:17:27.587Z,76.84
2019-05-07T19:19:53.884Z,76.78
2019-05-07T19:22:22.090Z,77.12
2019-05-07T19:24:48.139Z,76.90
2019-05-07T19:27:12.821Z,76.51
2019-05-07T19:29:42.331Z,76.85
2019-05-07T19:32:05.456Z,76.60
2019-05-07T19:34:32.453Z,76.77
2019-05-07T19:36:58.117Z,76.80
2019-05-07T19:39:24.716Z,76.88
2019-05-07T19:41:52.376Z,76.74
2019-05-07T19:44:17.352Z,76.85
2019-05-07T19:46:43.688Z,77.22
2019-05-07T19:49:10.053Z,77.04
2019-05-07T19:51:36.324Z,77.28
2019-05-07T19:54:02.652Z,77.22
2019-05-07T19:56:29.026Z,76.99
2019-05-07T19:58:55.355Z,76.81
2019-05-07T20:01:22.772Z,76.88
2019-05-07T20:03:48.012Z,76.39
2019-05-07T20:06:14.331Z,76.33
2019-05-07T20:08:40.643Z,76.29
2019-05-07T20:11:06.977Z,76.45
2019-05-07T20:13:33.281Z,75.98
2019-05-07T20:15:59.594Z,75.98
2019-05-07T20:18:25.917Z,75.60
2019-05-07T20:20:52.221Z,75.61
2019-05-07T20:23:18.556Z,75.61
2019-05-07T20:25:44.878Z,75.58
2019-05-07T20:28:12.694Z,75.53
2019-05-07T20:30:37.524Z,75.33
2019-05-07T20:33:03.861Z,75.19
2019-05-07T20:35:32.403Z,75.47
2019-05-07T20:37:56.499Z,74.98
2019-05-07T20:40:22.901Z,74.66
2019-05-07T20:42:49.230Z,74.92
2019-05-07T20:45:15.545Z,75.12
2019-05-07T20:47:42.241Z,74.56
2019-05-07T20:50:08.180Z,74.85
2019-05-07T20:52:34.515Z,75.25
2019-05-07T20:55:00.841Z,74.92
2019-05-07T20:57:27.208Z,74.96
2019-05-07T20:59:53.534Z,74.15
2019-05-07T21:02:19.870Z,74.28
2019-05-07T21:04:46.200Z,74.21
2019-05-07T21:07:12.506Z,74.20
2019-05-07T21:09:38.853Z,74.21
2019-05-07T21:12:05.157Z,74.81
2019-05-07T21:14:32.426Z,74.68
2019-05-07T21:16:57.959Z,75.00
2019-05-07T21:19:24.279Z,75.23
2019-05-07T21:21:50.599Z,74.75
2019-05-07T21:24:16.906Z,74.86
2019-05-07T21:26:43.277Z,74.13
2019-05-07T21:29:09.573Z,74.32
2019-05-07T21:31:35.989Z,74.38
2019-05-07T21:34:03.091Z,74.51
2019-05-07T21:36:28.619Z,73.92
2019-05-07T21:38:54.950Z,73.83
2019-05-07T21:41:22.762Z,74.06
2019-05-07T21:43:47.564Z,74.23
2019-05-07T21:46:13.890Z,74.35
2019-05-07T21:48:40.262Z,74.19
2019-05-07T21:51:06.653Z,74.51
2019-05-07T21:53:32.991Z,74.35
2019-05-07T21:56:02.539Z,74.44
2019-05-07T21:58:25.628Z,74.49
2019-05-07T22:00:52.064Z,74.48
2019-05-07T22:03:18.305Z,74.25
2019-05-07T22:05:44.621Z,74.33
2019-05-07T22:08:12.513Z,74.41
2019-05-07T22:10:37.247Z,74.28
2019-05-07T22:13:03.572Z,73.92
2019-05-07T22:15:31.839Z,74.25
2019-05-07T22:17:56.237Z,73.91
2019-05-07T22:20:22.548Z,74.14
2019-05-07T22:22:48.853Z,73.86
2019-05-07T22:25:15.189Z,74.20
2019-05-07T22:27:42.192Z,74.36
2019-05-07T22:30:07.858Z,74.47
2019-05-07T22:32:34.170Z,74.70
2019-05-07T22:35:02.612Z,74.87
2019-05-07T22:37:26.810Z,74.87
2019-05-07T22:39:53.141Z,74.68
2019-05-07T22:42:19.475Z,74.65
2019-05-07T22:44:45.776Z,74.88
2019-05-07T22:47:12.355Z,75.48
2019-05-07T22:49:38.414Z,74.51
2019-05-07T22:52:04.724Z,75.00
2019-05-07T22:54:31.932Z,74.42
2019-05-07T22:56:57.403Z,74.17
2019-05-07T22:59:23.725Z,74.20
2019-05-07T23:01:51.689Z,74.73
2019-05-07T23:04:16.373Z,74.75
2019-05-07T23:06:43.691Z,74.63
2019-05-07T23:09:09.011Z,75.14
2019-05-07T23:11:35.337Z,75.43
2019-05-07T23:14:02.608Z,75.28
2019-05-07T23:16:27.977Z,75.39
2019-05-07T23:18:54.281Z,75.97
2019-05-07T23:21:24.328Z,75.68
2019-05-07T23:23:46.921Z,75.88
2019-05-07T23:26:14.801Z,75.67
2019-05-07T23:28:41.714Z,75.64
2019-05-07T23:31:05.878Z,75.71
2019-05-07T23:33:32.294Z,75.32
2019-05-07T23:35:58.511Z,74.89
2019-05-07T23:38:24.842Z,75.13
2019-05-07T23:40:52.548Z,75.27
2019-05-07T23:43:17.467Z,75.40
2019-05-07T23:45:43.798Z,75.20
2019-05-07T23:48:12.196Z,75.10
2019-05-07T23:50:36.433Z,75.69
2019-05-07T23:53:02.741Z,75.82
2019-05-07T23:55:29.075Z,75.82
2019-05-07T23:57:55.376Z,76.16
